Round Mountain, Nevada
Current Conditions -  °F | °C
As of 11:56 PM on Sunday 23 Nov 2014 (Local Time) from KTPH Reporting Station
Clear Clear  
Wind Chill: 21°   Ceiling: Unl
Heat Index: 30°   Visibility: 10mi
Dew Point: 10°   Wind: 10mph
Humidity: 43%   Direction: 340°NNW
Pressure: 30.32"   Gusts: NA
Location:  38.71°N, 117.07°W
Report Text: KTPH 240756Z AUTO 34009KT 10SM CLR M01/M12 A3032 RMK AO2 SLP268 T10111122 400831017
Loading
Personal Weather Stations






























Interactive Weather Map New forecast layout! Learn more

10-Day Weather Forecast

Advertisements
Track Severe Weather on mobile